Coastal Nomad — WDC6439 — position and weather

sailwx.info

Track history (hours):
 
Tides and Currents Weather Stations Pressure Air Temp Water Temp Dewpoint Dewpoint Depression Visibility Wind Speed Wind Dir Waves Ship Positions

Coastal Nomad

Owner: Coastal Transportation, Inc., Seattle, WA. More information available from US FCC via Universal Licensing System and Coast Guard Vessel Documentation Center.

Last reported at 2015-Aug-24 18:00 UTC. Time now 2015-Aug-30 14:02 UTC.
Position N 55°06' W 164°06'.

Length 74 m; draft 4 m.

Type: Cargo ship. MMSI: 303683000.

Wind from 270 at 18 knots

Waves 1.5 meters (5 feet)

Barometer 1023.0 mb
Air temperature 10.0 ° C
Visibility: greater than 5.4 NM

Date/timePositionNaut miles runAvg speedWind from/ knotsBaromVisibWave heightAir tempDewpointWater temp
2015-Aug-24 18:00N 55°06' W 164°06'   270 / 181023.0 5.4 1.510.0
2015-Aug-20 19:00N 56°18' W 154°42'481 9.8 250 / 81018.0 5.4 0.512.2
2015-Aug-18 18:00N 56°06' W 140°18'   230 / 301013.0 5.4 3.514.4
2015-Aug-16 07:25N 51°03' W 127°55'1012.0
2015-Aug-16 06:33N 50°57' W 127°42'1212.2
2015-Aug-16 05:33N 50°50' W 127°26'1212.0
2015-Aug-16 04:31N 50°45' W 127°08'1411.8
2015-Aug-16 03:22N 50°39' W 126°49'1212.4
2015-Aug-16 02:23N 50°31' W 126°35'4910.1
2015-Aug-15 21:33N 50°14' W 125°23'10 8.7
2015-Aug-15 20:22N 50°05' W 125°16'910.9
2015-Aug-15 19:31N 50°13' W 125°23'2 2.6
2015-Aug-15 18:33N 50°16' W 125°24'1311.8
2015-Aug-15 17:28N 50°04' W 125°15'1010.7
2015-Aug-15 16:33N 49°57' W 125°06'1212.2
2015-Aug-15 15:32N 49°48' W 124°51'1212.2
2015-Aug-15 14:33N 49°39' W 124°39'1212.0
2015-Aug-15 13:33N 49°34' W 124°22'1212.2
2015-Aug-15 12:33N 49°28' W 124°06'1312.7
2015-Aug-15 11:33N 49°20' W 123°50'1212.3
2015-Aug-15 10:33N 49°12' W 123°36'1211.8
2015-Aug-15 09:33N 49°05' W 123°22'1212.1
2015-Aug-15 08:33N 48°57' W 123°08'1211.9
2015-Aug-15 07:33N 48°49' W 122°54'1111.0
2015-Aug-15 06:33N 48°41' W 122°43'10 9.8
2015-Aug-15 05:33N 48°31' W 122°44'1111.1
2015-Aug-15 04:31N 48°20' W 122°46'1511.8
2015-Aug-15 03:15N 48°05' W 122°39'913.1
2015-Aug-15 02:33N 47°57' W 122°33'1212.2
2015-Aug-15 01:33N 47°46' W 122°26'6 6.1
2015-Aug-15 00:33N 47°40' W 122°24'1 0.6
2015-Aug-14 23:34N 47°40' W 122°23'1 0.5
2015-Aug-14 22:31N 47°39' W 122°23'0 0.0
2015-Aug-14 21:34N 47°39' W 122°23'0 0.0
2015-Aug-14 20:34N 47°39' W 122°23'0 0.0
2015-Aug-14 19:28N 47°39' W 122°23'0 0.0
2015-Aug-14 18:34N 47°39' W 122°23'  
Track history (hours):
 
Tides and Currents Weather Stations Pressure Air Temp Water Temp Dewpoint Dewpoint Depression Visibility Wind Speed Wind Dir Waves Ship Positions

Coastal Nomad

Owner: Coastal Transportation, Inc., Seattle, WA. More information available from US FCC via Universal Licensing System and Coast Guard Vessel Documentation Center.

Last reported at 2015-Aug-24 18:00 UTC. Time now 2015-Aug-30 14:02 UTC.
Position N 55°06' W 164°06'.

Length 74 m; draft 4 m.

Type: Cargo ship. MMSI: 303683000.

Wind from 270 at 18 knots

Waves 1.5 meters (5 feet)

Barometer 1023.0 mb
Air temperature 10.0 ° C
Visibility: greater than 5.4 NM

Date/timePositionNaut miles runAvg speedWind from/ knotsBaromVisibWave heightAir tempDewpointWater temp
2015-Aug-24 18:00N 55°06' W 164°06'   270 / 181023.0 5.4 1.510.0
2015-Aug-20 19:00N 56°18' W 154°42'481 9.8 250 / 81018.0 5.4 0.512.2
2015-Aug-18 18:00N 56°06' W 140°18'   230 / 301013.0 5.4 3.514.4
2015-Aug-16 07:25N 51°03' W 127°55'1012.0
2015-Aug-16 06:33N 50°57' W 127°42'1212.2
2015-Aug-16 05:33N 50°50' W 127°26'1212.0
2015-Aug-16 04:31N 50°45' W 127°08'1411.8
2015-Aug-16 03:22N 50°39' W 126°49'1212.4
2015-Aug-16 02:23N 50°31' W 126°35'4910.1
2015-Aug-15 21:33N 50°14' W 125°23'10 8.7
2015-Aug-15 20:22N 50°05' W 125°16'910.9
2015-Aug-15 19:31N 50°13' W 125°23'2 2.6
2015-Aug-15 18:33N 50°16' W 125°24'1311.8
2015-Aug-15 17:28N 50°04' W 125°15'1010.7
2015-Aug-15 16:33N 49°57' W 125°06'1212.2
2015-Aug-15 15:32N 49°48' W 124°51'1212.2
2015-Aug-15 14:33N 49°39' W 124°39'1212.0
2015-Aug-15 13:33N 49°34' W 124°22'1212.2
2015-Aug-15 12:33N 49°28' W 124°06'1312.7
2015-Aug-15 11:33N 49°20' W 123°50'1212.3
2015-Aug-15 10:33N 49°12' W 123°36'1211.8
2015-Aug-15 09:33N 49°05' W 123°22'1212.1
2015-Aug-15 08:33N 48°57' W 123°08'1211.9
2015-Aug-15 07:33N 48°49' W 122°54'1111.0
2015-Aug-15 06:33N 48°41' W 122°43'10 9.8
2015-Aug-15 05:33N 48°31' W 122°44'1111.1
2015-Aug-15 04:31N 48°20' W 122°46'1511.8
2015-Aug-15 03:15N 48°05' W 122°39'913.1
2015-Aug-15 02:33N 47°57' W 122°33'1212.2
2015-Aug-15 01:33N 47°46' W 122°26'6 6.1
2015-Aug-15 00:33N 47°40' W 122°24'1 0.6
2015-Aug-14 23:34N 47°40' W 122°23'1 0.5
2015-Aug-14 22:31N 47°39' W 122°23'0 0.0
2015-Aug-14 21:34N 47°39' W 122°23'0 0.0
2015-Aug-14 20:34N 47°39' W 122°23'0 0.0
2015-Aug-14 19:28N 47°39' W 122°23'0 0.0
2015-Aug-14 18:34N 47°39' W 122°23'  

Dump ship's entire track history